createdAt,value
2019-04-21T00:01:12.523Z,53.20
2019-04-21T00:03:48.647Z,53.00
2019-04-21T00:06:33.637Z,53.20
2019-04-21T00:09:06.876Z,53.40
2019-04-21T00:11:37.777Z,53.50
2019-04-21T00:13:56.398Z,53.90
2019-04-21T00:16:15.661Z,53.80
2019-04-21T00:19:03.237Z,54.00
2019-04-21T00:21:34.383Z,53.00
2019-04-21T00:24:20.229Z,52.40
2019-04-21T00:27:17.423Z,53.00
2019-04-21T00:29:37.991Z,53.60
2019-04-21T00:31:57.911Z,52.50
2019-04-21T00:34:15.415Z,52.80
2019-04-21T00:36:53.698Z,53.00
2019-04-21T00:39:43.625Z,53.00
2019-04-21T00:42:05.418Z,51.80
2019-04-21T00:44:28.382Z,51.90
2019-04-21T00:47:00.334Z,52.50
2019-04-21T00:49:33.066Z,52.60
2019-04-21T00:52:33.306Z,52.80
2019-04-21T00:54:57.031Z,53.40
2019-04-21T00:57:32.539Z,53.20
2019-04-21T00:59:55.757Z,54.20
2019-04-21T01:02:24.742Z,53.10
2019-04-21T01:05:00.017Z,52.90
2019-04-21T01:07:30.545Z,53.50
2019-04-21T01:09:48.882Z,54.20
2019-04-21T01:12:25.455Z,54.50
2019-04-21T01:15:03.841Z,54.20
2019-04-21T01:17:30.554Z,55.10
2019-04-21T01:19:54.768Z,54.90
2019-04-21T01:22:09.756Z,54.60
2019-04-21T01:24:43.067Z,53.90
2019-04-21T01:31:11.940Z,54.30
2019-04-21T01:33:46.841Z,54.90
2019-04-21T01:36:10.998Z,55.10
2019-04-21T01:39:03.439Z,55.70
2019-04-21T01:41:13.231Z,55.70
2019-04-21T01:43:41.873Z,55.20
2019-04-21T01:46:10.734Z,55.10
2019-04-21T01:48:39.665Z,55.00
2019-04-21T01:51:10.309Z,55.50
2019-04-21T01:53:52.509Z,55.90
2019-04-21T01:56:31.824Z,55.60
2019-04-21T01:58:51.744Z,54.90
2019-04-21T02:01:36.054Z,55.20
2019-04-21T02:04:01.127Z,55.30
2019-04-21T02:06:42.025Z,56.10
2019-04-21T02:09:03.378Z,56.20
2019-04-21T02:11:40.915Z,56.00
2019-04-21T02:14:22.989Z,56.60
2019-04-21T02:16:34.524Z,56.30
2019-04-21T02:18:58.554Z,55.40
2019-04-21T02:21:29.940Z,55.80
2019-04-21T02:24:11.762Z,56.70
2019-04-21T02:26:49.041Z,56.70
2019-04-21T02:29:19.568Z,56.10
2019-04-21T02:31:57.070Z,56.90
2019-04-21T02:36:52.933Z,56.80
2019-04-21T02:39:19.241Z,56.40
2019-04-21T02:44:30.007Z,56.30
2019-04-21T02:46:48.445Z,56.40
2019-04-21T02:49:38.109Z,56.80
2019-04-21T02:51:52.752Z,56.30
2019-04-21T02:54:48.044Z,56.20
2019-04-21T02:57:08.605Z,55.90
2019-04-21T03:04:46.746Z,54.80
2019-04-21T03:12:22.590Z,53.40
2019-04-21T03:17:14.168Z,52.80
2019-04-21T03:25:22.802Z,52.60
2019-04-21T03:29:52.560Z,53.00
2019-04-21T03:35:25.906Z,52.90
2019-04-21T03:37:30.899Z,52.50
2019-04-21T03:39:50.935Z,52.60
2019-04-21T03:42:27.169Z,52.80
2019-04-21T03:44:46.309Z,52.60
2019-04-21T03:47:22.864Z,52.40
2019-04-21T03:49:54.757Z,52.40
2019-04-21T03:52:19.447Z,52.90
2019-04-21T04:00:44.974Z,53.10
2019-04-21T04:03:27.510Z,53.30
2019-04-21T04:06:03.935Z,53.40
2019-04-21T04:16:11.408Z,53.50
2019-04-21T04:23:45.390Z,53.90
2019-04-21T04:26:19.334Z,54.10
2019-04-21T04:29:04.320Z,54.70
2019-04-21T04:31:28.958Z,55.20
2019-04-21T04:33:57.788Z,55.20
2019-04-21T04:38:59.507Z,56.90
2019-04-21T04:41:25.064Z,57.50
2019-04-21T04:44:03.193Z,57.30
2019-04-21T04:46:41.599Z,57.60
2019-04-21T04:48:57.320Z,57.10
2019-04-21T04:51:33.445Z,57.70
2019-04-21T04:53:47.410Z,57.00
2019-04-21T04:56:43.455Z,57.40
2019-04-21T05:01:51.200Z,58.50
2019-04-21T05:04:00.365Z,58.00
2019-04-21T05:06:52.665Z,57.80
2019-04-21T05:09:07.733Z,56.70
2019-04-21T05:14:09.961Z,57.30
2019-04-21T05:19:53.998Z,58.90
2019-04-21T05:23:48.371Z,59.10
2019-04-21T05:26:14.921Z,58.30
2019-04-21T05:28:44.705Z,56.80
2019-04-21T05:31:44.349Z,56.50
2019-04-21T05:37:01.095Z,56.50
2019-04-21T05:39:36.222Z,57.80
2019-04-21T05:41:54.263Z,57.80
2019-04-21T05:44:41.413Z,57.00
2019-04-21T05:47:26.532Z,55.00
2019-04-21T05:49:45.181Z,54.60
2019-04-21T05:52:14.374Z,54.10
2019-04-21T05:57:15.985Z,53.90
2019-04-21T05:59:49.169Z,53.90
2019-04-21T06:02:23.657Z,52.40
2019-04-21T06:09:57.294Z,52.00
2019-04-21T06:12:28.583Z,52.00
2019-04-21T06:14:59.101Z,49.80
2019-04-21T06:17:29.886Z,50.50
2019-04-21T06:19:57.299Z,49.60
2019-04-21T06:22:23.495Z,49.90
2019-04-21T06:25:21.687Z,48.90
2019-04-21T06:27:32.492Z,48.60
2019-04-21T06:32:45.941Z,48.40
2019-04-21T06:35:13.079Z,46.90
2019-04-21T06:37:43.180Z,47.70
2019-04-21T06:40:21.518Z,47.50
2019-04-21T06:42:35.432Z,46.80
2019-04-21T06:45:06.008Z,47.80
2019-04-21T06:50:00.222Z,46.50
2019-04-21T06:52:46.485Z,46.50
2019-04-21T06:57:34.829Z,46.60
2019-04-21T07:00:02.401Z,45.30
2019-04-21T07:02:59.966Z,45.50
2019-04-21T07:05:20.503Z,46.10
2019-04-21T07:07:40.483Z,46.10
2019-04-21T07:10:22.510Z,45.90
2019-04-21T07:12:35.761Z,46.60
2019-04-21T07:15:03.590Z,46.80
2019-04-21T07:17:33.898Z,45.20
2019-04-21T07:20:12.891Z,45.10
2019-04-21T07:22:37.722Z,45.20
2019-04-21T07:25:09.025Z,45.70
2019-04-21T07:27:43.021Z,45.10
2019-04-21T07:30:13.161Z,45.10
2019-04-21T07:32:40.274Z,45.00
2019-04-21T07:35:09.658Z,45.80
2019-04-21T07:37:35.540Z,46.00
2019-04-21T07:40:05.440Z,45.90
2019-04-21T07:42:32.773Z,46.00
2019-04-21T07:45:05.128Z,46.20
2019-04-21T07:47:47.369Z,46.50
2019-04-21T07:50:31.798Z,46.20
2019-04-21T07:53:32.252Z,47.30
2019-04-21T07:55:33.973Z,46.00
2019-04-21T07:58:22.515Z,46.20
2019-04-21T08:00:57.723Z,46.40
2019-04-21T08:03:30.328Z,45.30
2019-04-21T08:05:58.879Z,46.00
2019-04-21T08:08:20.844Z,45.80
2019-04-21T08:10:52.359Z,45.80
2019-04-21T08:13:34.654Z,46.10
2019-04-21T08:16:11.202Z,46.00
2019-04-21T08:18:26.934Z,46.40
2019-04-21T08:20:53.188Z,46.30
2019-04-21T08:23:29.916Z,45.60
2019-04-21T08:26:07.786Z,45.20
2019-04-21T08:28:26.260Z,46.80
2019-04-21T08:31:10.313Z,46.10
2019-04-21T08:33:38.712Z,44.90
2019-04-21T08:36:18.970Z,44.90
2019-04-21T08:38:34.651Z,44.60
2019-04-21T08:41:11.128Z,42.00
2019-04-21T08:46:09.688Z,43.40
2019-04-21T08:48:37.571Z,42.40
2019-04-21T08:51:24.523Z,42.30
2019-04-21T08:53:41.399Z,42.30
2019-04-21T08:56:27.795Z,42.20
2019-04-21T08:59:03.816Z,41.50
2019-04-21T09:04:52.497Z,41.30
2019-04-21T09:09:57.530Z,40.60
2019-04-21T09:12:29.475Z,40.40
2019-04-21T09:14:55.321Z,36.40
2019-04-21T09:17:20.656Z,37.00
2019-04-21T09:20:04.090Z,37.00
2019-04-21T09:22:26.898Z,37.80
2019-04-21T09:24:55.965Z,35.90
2019-04-21T09:27:27.868Z,37.70
2019-04-21T09:29:47.949Z,36.20
2019-04-21T09:32:16.623Z,35.20
2019-04-21T09:34:43.834Z,33.70
2019-04-21T09:37:24.395Z,30.00
2019-04-21T09:39:46.757Z,29.90
2019-04-21T09:42:11.531Z,27.80
2019-04-21T09:44:43.932Z,26.50
2019-04-21T09:47:12.420Z,26.40
2019-04-21T09:49:41.890Z,25.50
2019-04-21T09:52:16.100Z,25.00
2019-04-21T09:54:52.072Z,27.10
2019-04-21T09:57:23.991Z,26.80
2019-04-21T09:59:49.143Z,28.30
2019-04-21T10:02:18.231Z,30.00
2019-04-21T10:04:43.926Z,30.70
2019-04-21T10:07:24.672Z,31.70
2019-04-21T10:09:43.564Z,31.20
2019-04-21T10:12:12.581Z,31.80
2019-04-21T10:14:41.295Z,31.70
2019-04-21T10:17:21.755Z,30.00
2019-04-21T10:19:50.655Z,30.00
2019-04-21T10:22:21.002Z,29.60
2019-04-21T10:24:49.880Z,30.40
2019-04-21T10:27:19.022Z,29.50
2019-04-21T10:29:49.121Z,30.60
2019-04-21T10:32:21.050Z,32.40
2019-04-21T10:34:49.604Z,31.20
2019-04-21T10:37:18.796Z,31.40
2019-04-21T10:39:47.812Z,31.20
2019-04-21T10:42:17.301Z,32.00
2019-04-21T10:44:47.196Z,29.00
2019-04-21T10:47:16.572Z,31.30
2019-04-21T10:49:46.594Z,31.80
2019-04-21T10:52:17.187Z,30.70
2019-04-21T10:55:07.105Z,30.00
2019-04-21T10:57:17.850Z,29.30
2019-04-21T10:59:49.443Z,28.50
2019-04-21T11:02:30.722Z,27.90
2019-04-21T11:05:00.505Z,28.70
2019-04-21T11:07:59.695Z,29.00
2019-04-21T11:10:18.177Z,29.10
2019-04-21T11:12:47.864Z,28.30
2019-04-21T11:15:17.114Z,29.80
2019-04-21T11:17:48.317Z,27.60
2019-04-21T11:20:17.209Z,28.70
2019-04-21T11:22:47.330Z,28.20
2019-04-21T11:25:15.955Z,26.60
2019-04-21T11:27:44.925Z,28.90
2019-04-21T11:30:13.831Z,27.80
2019-04-21T11:32:44.956Z,28.70
2019-04-21T11:35:12.916Z,29.00
2019-04-21T11:37:42.191Z,26.70
2019-04-21T11:40:14.979Z,28.40
2019-04-21T11:42:43.870Z,29.90
2019-04-21T11:45:18.723Z,28.40
2019-04-21T11:47:54.827Z,29.90
2019-04-21T11:50:23.554Z,28.90
2019-04-21T11:52:52.830Z,28.60
2019-04-21T11:55:22.841Z,26.90
2019-04-21T11:57:53.104Z,28.30
2019-04-21T12:00:22.041Z,27.60
2019-04-21T12:02:51.220Z,25.30
2019-04-21T12:05:21.338Z,26.20
2019-04-21T12:07:51.324Z,26.00
2019-04-21T12:10:23.740Z,24.60
2019-04-21T12:12:53.163Z,27.20
2019-04-21T12:15:22.659Z,27.30
2019-04-21T12:17:52.186Z,27.40
2019-04-21T12:20:20.944Z,26.70
2019-04-21T12:22:49.735Z,27.50
2019-04-21T12:25:20.950Z,26.80
2019-04-21T12:27:49.928Z,26.20
2019-04-21T12:30:19.873Z,26.60
2019-04-21T12:33:00.121Z,27.80
2019-04-21T12:35:29.793Z,26.50
2019-04-21T12:37:58.690Z,26.10
2019-04-21T12:40:28.354Z,24.10
2019-04-21T12:42:57.048Z,23.60
2019-04-21T12:45:26.081Z,24.60
2019-04-21T12:47:55.741Z,25.10
2019-04-21T12:50:25.698Z,24.10
2019-04-21T12:52:55.839Z,24.80
2019-04-21T12:55:30.739Z,23.60
2019-04-21T12:57:55.252Z,22.60
2019-04-21T13:00:24.823Z,19.80
2019-04-21T13:02:54.010Z,22.30
2019-04-21T13:05:22.886Z,22.10
2019-04-21T13:07:51.333Z,22.40
2019-04-21T13:10:20.487Z,24.90
2019-04-21T13:12:49.981Z,23.90
2019-04-21T13:15:19.868Z,24.10
2019-04-21T13:17:50.147Z,23.60
2019-04-21T13:20:19.205Z,24.40
2019-04-21T13:22:48.219Z,23.80
2019-04-21T13:25:17.964Z,23.20
2019-04-21T13:27:47.263Z,23.50
2019-04-21T13:30:17.998Z,22.00
2019-04-21T13:32:47.050Z,21.90
2019-04-21T13:35:17.086Z,21.00
2019-04-21T13:37:45.837Z,19.60
2019-04-21T13:40:51.781Z,19.10
2019-04-21T13:43:06.182Z,18.30
2019-04-21T13:45:34.330Z,18.30
2019-04-21T13:48:04.489Z,18.40
2019-04-21T13:50:33.297Z,17.10
2019-04-21T13:53:02.794Z,17.10
2019-04-21T13:55:31.909Z,17.20
2019-04-21T13:58:00.763Z,17.80
2019-04-21T14:00:31.755Z,15.90
2019-04-21T14:03:00.866Z,16.50
2019-04-21T14:05:30.671Z,17.40
2019-04-21T14:08:00.861Z,17.60
2019-04-21T14:10:31.336Z,16.70
2019-04-21T14:13:00.529Z,16.20
2019-04-21T14:15:30.398Z,15.70
2019-04-21T14:17:58.954Z,16.50
2019-04-21T14:20:29.030Z,17.00
2019-04-21T14:23:10.306Z,17.30
2019-04-21T14:25:29.815Z,17.90
2019-04-21T14:27:59.813Z,19.30
2019-04-21T14:30:30.163Z,16.40
2019-04-21T14:33:00.310Z,16.60
2019-04-21T14:35:29.457Z,17.10
2019-04-21T14:37:58.504Z,17.60
2019-04-21T14:40:29.858Z,18.00
2019-04-21T14:42:58.340Z,17.30
2019-04-21T14:45:32.528Z,17.70
2019-04-21T14:48:09.227Z,18.50
2019-04-21T14:50:48.411Z,18.20
2019-04-21T14:53:21.772Z,19.00
2019-04-21T14:55:51.191Z,19.70
2019-04-21T14:58:21.122Z,19.50
2019-04-21T15:01:01.954Z,19.10
2019-04-21T15:03:31.945Z,19.50
2019-04-21T15:06:01.228Z,20.80
2019-04-21T15:08:31.203Z,18.80
2019-04-21T15:11:01.003Z,18.40
2019-04-21T15:13:30.042Z,18.50
2019-04-21T15:15:58.657Z,19.50
2019-04-21T15:18:28.498Z,20.50
2019-04-21T15:20:57.426Z,19.60
2019-04-21T15:23:28.164Z,19.50
2019-04-21T15:25:56.595Z,19.30
2019-04-21T15:28:26.295Z,18.10
2019-04-21T15:30:56.656Z,20.00
2019-04-21T15:33:26.545Z,19.50
2019-04-21T15:35:55.396Z,19.70
2019-04-21T15:38:25.435Z,18.10
2019-04-21T15:40:58.045Z,17.90
2019-04-21T15:43:24.590Z,18.40
2019-04-21T15:45:53.282Z,18.90
2019-04-21T15:48:22.309Z,19.70
2019-04-21T15:50:51.904Z,20.50
2019-04-21T15:53:21.996Z,19.20
2019-04-21T15:59:24.549Z,21.80
2019-04-21T16:01:54.804Z,22.40
2019-04-21T16:04:24.861Z,21.60
2019-04-21T16:06:55.376Z,21.40
2019-04-21T16:09:26.939Z,19.60
2019-04-21T16:12:04.079Z,20.70
2019-04-21T16:14:34.339Z,21.00
2019-04-21T16:17:03.464Z,21.20
2019-04-21T16:19:33.306Z,23.20
2019-04-21T16:22:03.180Z,21.50
2019-04-21T16:24:31.779Z,22.10
2019-04-21T16:27:04.598Z,22.00
2019-04-21T16:29:31.294Z,22.60
2019-04-21T16:32:01.587Z,21.80
2019-04-21T16:34:40.330Z,23.60
2019-04-21T16:37:01.504Z,23.10
2019-04-21T16:39:31.448Z,24.10
2019-04-21T16:42:00.411Z,23.90
2019-04-21T16:44:29.406Z,24.80
2019-04-21T16:46:59.238Z,24.40
2019-04-21T16:49:27.894Z,24.80
2019-04-21T16:52:16.532Z,24.40
2019-04-21T16:54:47.740Z,24.90
2019-04-21T16:57:18.007Z,25.20
2019-04-21T16:59:48.589Z,24.20
2019-04-21T17:02:18.661Z,25.10
2019-04-21T17:04:48.497Z,25.20
2019-04-21T17:07:18.043Z,25.60
2019-04-21T17:09:46.666Z,26.00
2019-04-21T17:12:16.542Z,26.90
2019-04-21T17:15:00.797Z,25.70
2019-04-21T17:17:36.969Z,26.30
2019-04-21T17:19:50.226Z,26.70
2019-04-21T17:22:17.547Z,27.60
2019-04-21T17:24:46.478Z,27.80
2019-04-21T17:27:15.383Z,27.40
2019-04-21T17:29:44.249Z,27.00
2019-04-21T17:32:14.089Z,27.40
2019-04-21T17:34:43.764Z,26.40
2019-04-21T17:37:13.060Z,26.90
2019-04-21T17:39:42.951Z,28.30
2019-04-21T17:42:23.672Z,28.10
2019-04-21T17:44:43.309Z,28.90
2019-04-21T17:47:23.881Z,29.20
2019-04-21T17:49:44.504Z,30.00
2019-04-21T17:52:20.331Z,30.30
2019-04-21T17:55:10.359Z,30.60
2019-04-21T17:57:54.656Z,31.50
2019-04-21T18:00:42.747Z,32.50
2019-04-21T18:03:28.080Z,33.10
2019-04-21T18:05:48.771Z,32.90
2019-04-21T18:08:21.505Z,33.10
2019-04-21T18:10:43.951Z,33.20
2019-04-21T18:13:06.537Z,33.70
2019-04-21T18:15:51.052Z,33.90
2019-04-21T18:18:00.668Z,34.00
2019-04-21T18:20:37.743Z,34.60
2019-04-21T18:23:25.125Z,35.10
2019-04-21T18:25:52.779Z,35.70
2019-04-21T18:28:14.510Z,35.80
2019-04-21T18:30:49.435Z,35.60
2019-04-21T18:33:27.200Z,36.00
2019-04-21T18:36:00.709Z,36.30
2019-04-21T18:39:12.659Z,36.90
2019-04-21T18:41:29.643Z,37.60
2019-04-21T18:44:28.153Z,38.30
2019-04-21T18:47:12.162Z,38.40
2019-04-21T18:49:17.367Z,38.70
2019-04-21T18:51:57.598Z,39.40
2019-04-21T18:54:47.087Z,39.60
2019-04-21T18:57:10.019Z,40.30
2019-04-21T18:59:34.548Z,41.50
2019-04-21T19:02:06.122Z,42.10
2019-04-21T19:04:32.524Z,42.50
2019-04-21T19:07:15.535Z,42.60
2019-04-21T19:12:25.316Z,42.70
2019-04-21T19:14:46.871Z,43.40
2019-04-21T19:17:48.351Z,44.00
2019-04-21T19:22:17.164Z,44.50
2019-04-21T19:24:48.505Z,43.70
2019-04-21T19:27:23.339Z,43.00
2019-04-21T19:30:01.653Z,42.90
2019-04-21T19:32:22.561Z,42.50
2019-04-21T19:34:34.730Z,41.90
2019-04-21T19:37:10.954Z,42.00
2019-04-21T19:39:43.419Z,42.60
2019-04-21T19:42:12.802Z,41.60
2019-04-21T19:44:47.205Z,42.10
2019-04-21T19:47:25.947Z,42.10
2019-04-21T19:49:55.415Z,43.00
2019-04-21T19:52:09.406Z,43.70
2019-04-21T19:54:37.917Z,43.10
2019-04-21T19:57:02.865Z,44.50
2019-04-21T19:59:39.932Z,44.00
2019-04-21T20:02:02.602Z,45.30
2019-04-21T20:04:38.609Z,44.80
2019-04-21T20:07:19.925Z,43.60
2019-04-21T20:09:46.451Z,43.30
2019-04-21T20:12:18.691Z,42.80
2019-04-21T20:14:55.391Z,41.90
2019-04-21T20:17:13.696Z,41.80
2019-04-21T20:19:32.220Z,41.60
2019-04-21T20:22:00.965Z,41.20
2019-04-21T20:24:33.674Z,40.60
2019-04-21T20:27:07.887Z,40.20
2019-04-21T20:29:48.821Z,40.30
2019-04-21T20:32:24.353Z,38.80
2019-04-21T20:34:55.579Z,38.40
2019-04-21T20:37:21.301Z,38.00
2019-04-21T20:39:39.261Z,38.20
2019-04-21T20:42:18.125Z,38.80
2019-04-21T20:44:54.549Z,38.70
2019-04-21T20:47:13.343Z,39.10
2019-04-21T20:49:40.866Z,39.30
2019-04-21T20:52:18.936Z,39.10
2019-04-21T20:54:45.414Z,39.20
2019-04-21T20:57:18.393Z,39.50
2019-04-21T20:59:46.677Z,40.10
2019-04-21T21:02:19.441Z,39.90
2019-04-21T21:04:45.034Z,40.30
2019-04-21T21:07:28.310Z,40.30
2019-04-21T21:09:55.546Z,40.50
2019-04-21T21:12:33.671Z,40.70
2019-04-21T21:14:45.734Z,40.70
2019-04-21T21:17:36.284Z,41.00
2019-04-21T21:19:55.780Z,41.30
2019-04-21T21:22:15.991Z,41.00
2019-04-21T21:24:53.953Z,41.30
2019-04-21T21:27:19.206Z,41.30
2019-04-21T21:29:49.941Z,40.80
2019-04-21T21:32:22.623Z,41.40
2019-04-21T21:34:52.261Z,41.50
2019-04-21T21:37:36.336Z,41.00
2019-04-21T21:39:57.328Z,41.70
2019-04-21T21:42:07.662Z,41.70
2019-04-21T21:44:39.429Z,41.50
2019-04-21T21:47:22.713Z,41.50
2019-04-21T21:49:54.144Z,41.80
2019-04-21T21:52:16.924Z,42.00
2019-04-21T21:54:51.855Z,42.40
2019-04-21T21:57:20.716Z,42.80
2019-04-21T21:59:52.867Z,42.90
2019-04-21T22:02:31.080Z,43.00
2019-04-21T22:04:56.876Z,42.60
2019-04-21T22:07:25.757Z,42.60
2019-04-21T22:09:50.523Z,42.60
2019-04-21T22:12:20.123Z,42.60
2019-04-21T22:14:52.039Z,42.00
2019-04-21T22:17:36.847Z,42.50
2019-04-21T22:20:08.119Z,42.60
2019-04-21T22:22:31.235Z,42.60
2019-04-21T22:25:00.782Z,43.00
2019-04-21T22:27:19.438Z,42.80
2019-04-21T22:29:53.065Z,42.50
2019-04-21T22:32:24.578Z,42.50
2019-04-21T22:34:54.808Z,42.50
2019-04-21T22:37:36.800Z,42.60
2019-04-21T22:40:02.216Z,42.60
2019-04-21T22:42:25.552Z,42.80
2019-04-21T22:44:50.299Z,42.70
2019-04-21T22:47:24.978Z,43.50
2019-04-21T22:49:48.938Z,43.90
2019-04-21T22:52:21.008Z,43.60
2019-04-21T22:54:49.283Z,43.80
2019-04-21T22:57:21.981Z,43.60
2019-04-21T22:59:55.979Z,44.10
2019-04-21T23:02:24.683Z,44.00
2019-04-21T23:04:53.028Z,44.70
2019-04-21T23:07:21.067Z,45.50
2019-04-21T23:09:49.524Z,45.90
2019-04-21T23:12:20.428Z,45.40
2019-04-21T23:14:57.685Z,46.00
2019-04-21T23:17:43.741Z,45.80
2019-04-21T23:20:09.969Z,45.20
2019-04-21T23:22:49.260Z,46.00
2019-04-21T23:25:09.458Z,45.50
2019-04-21T23:27:33.934Z,46.00
2019-04-21T23:30:17.716Z,45.80
2019-04-21T23:32:30.643Z,45.90
2019-04-21T23:34:50.978Z,45.70
2019-04-21T23:37:23.694Z,45.90
2019-04-21T23:39:54.685Z,46.70
2019-04-21T23:42:27.011Z,45.80
2019-04-21T23:44:55.188Z,45.90
2019-04-21T23:47:36.949Z,46.70
2019-04-21T23:49:58.344Z,46.50
2019-04-21T23:52:21.826Z,46.30
2019-04-21T23:54:51.572Z,46.10
2019-04-21T23:57:28.533Z,46.30
2019-04-21T23:59:55.105Z,46.20
